Time;durP1;ratioP1;P1;durP2;ratioP2;P2;SDS_P1;SDS_P2;PMS_P1;PMS_P2;Temp;Humidity;BMP_temperature;BMP_pressure;BME280_temperature;BME280_humidity;BME280_pressure;Samples;Min_cycle;Max_cycle;Signal;HPM_P1;HPM_P2
2023/07/24 00:00:02;;;;;;;3.17;2.97;;;;;;;;;;4989702;28;20306;-84
2023/07/24 00:02:29;;;;;;;5.60;3.75;;;;;;;;;;4990463;28;20231;-85
2023/07/24 00:04:56;;;;;;;4.80;3.47;;;;;;;;;;4990941;28;20247;-85
2023/07/24 00:07:25;;;;;;;6.07;3.53;;;;;;;;;;4995021;28;20421;-84
2023/07/24 00:09:52;;;;;;;4.35;3.13;;;;;;;;;;4997458;28;20253;-85
2023/07/24 00:12:19;;;;;;;6.03;3.95;;;;;;;;;;4994445;28;20558;-85
2023/07/24 00:14:46;;;;;;;3.60;3.30;;;;;;;;;;4989572;28;20218;-85
2023/07/24 00:17:13;;;;;;;3.17;2.97;;;;;;;;;;4989895;28;20608;-85
2023/07/24 00:19:39;;;;;;;3.28;3.00;;;;;;;;;;4989368;28;20239;-86
2023/07/24 00:22:06;;;;;;;5.40;3.50;;;;;;;;;;4990895;28;20232;-85
2023/07/24 00:24:34;;;;;;;5.10;3.17;;;;;;;;;;5007857;28;20244;-85
2023/07/24 00:27:01;;;;;;;8.55;3.65;;;;;;;;;;5014870;28;20255;-84
2023/07/24 00:29:28;;;;;;;4.32;3.15;;;;;;;;;;4992478;28;20239;-83
2023/07/24 00:31:56;;;;;;;7.47;3.33;;;;;;;;;;4990864;28;20221;-84
2023/07/24 00:34:23;;;;;;;4.10;2.75;;;;;;;;;;5005045;28;20236;-84
2023/07/24 00:36:50;;;;;;;4.40;3.17;;;;;;;;;;5009174;28;20286;-84
2023/07/24 00:39:17;;;;;;;6.15;3.65;;;;;;;;;;5008867;28;20230;-85
2023/07/24 00:41:45;;;;;;;3.70;2.83;;;;;;;;;;5010741;28;20249;-86
2023/07/24 00:44:12;;;;;;;3.78;3.10;;;;;;;;;;5010798;28;20218;-85
2023/07/24 00:46:39;;;;;;;7.05;3.28;;;;;;;;;;5010856;28;20307;-85
2023/07/24 00:49:06;;;;;;;5.13;3.33;;;;;;;;;;5010697;28;20206;-85
2023/07/24 00:51:34;;;;;;;4.45;2.67;;;;;;;;;;5010602;28;20203;-85
2023/07/24 00:54:02;;;;;;;6.35;3.50;;;;;;;;;;5010502;28;20226;-86
2023/07/24 00:56:29;;;;;;;6.03;3.40;;;;;;;;;;5009726;28;20254;-84
2023/07/24 00:58:59;;;;;;;6.40;4.25;;;;;;;;;;5010121;28;20195;-84
2023/07/24 01:01:26;;;;;;;4.75;3.00;;;;;;;;;;5010031;28;20233;-86
2023/07/24 01:03:53;;;;;;;4.95;3.35;;;;;;;;;;5010231;28;20615;-85
2023/07/24 01:06:20;;;;;;;7.13;4.13;;;;;;;;;;5011406;28;20233;-85
2023/07/24 01:08:46;;;;;;;3.42;3.15;;;;;;;;;;5013994;28;20700;-84
2023/07/24 01:11:19;;;;;;;5.90;3.85;;;;;;;;;;5014040;28;20218;-84
2023/07/24 01:13:50;;;;;;;9.20;3.75;;;;;;;;;;5014032;28;20202;-86
2023/07/24 01:16:19;;;;;;;6.03;3.33;;;;;;;;;;5013928;28;20596;-85
2023/07/24 01:18:46;;;;;;;5.57;2.95;;;;;;;;;;5014319;28;20200;-85
2023/07/24 01:21:15;;;;;;;6.32;3.70;;;;;;;;;;5013641;28;20723;-85
2023/07/24 01:23:48;;;;;;;4.35;3.95;;;;;;;;;;5013738;28;20218;-84
2023/07/24 01:26:17;;;;;;;5.95;3.45;;;;;;;;;;5014019;28;20214;-85
2023/07/24 01:28:44;;;;;;;5.30;4.13;;;;;;;;;;5013802;28;20231;-86
2023/07/24 01:31:11;;;;;;;7.25;3.97;;;;;;;;;;5014008;28;20633;-84
2023/07/24 01:33:39;;;;;;;7.35;4.15;;;;;;;;;;5013508;28;20200;-85
2023/07/24 01:36:06;;;;;;;6.72;4.03;;;;;;;;;;5014398;28;20211;-85
2023/07/24 01:38:35;;;;;;;5.15;3.65;;;;;;;;;;5013716;28;20211;-85
2023/07/24 01:41:03;;;;;;;5.07;3.50;;;;;;;;;;5013854;28;20210;-84
2023/07/24 01:43:32;;;;;;;5.18;3.88;;;;;;;;;;5013664;28;20212;-85
2023/07/24 01:45:59;;;;;;;7.13;4.15;;;;;;;;;;5013475;28;20242;-84
2023/07/24 01:48:26;;;;;;;3.42;3.17;;;;;;;;;;5013086;28;20621;-85
2023/07/24 01:50:53;;;;;;;6.93;5.10;;;;;;;;;;5013621;28;20278;-85
2023/07/24 01:53:20;;;;;;;15.00;4.28;;;;;;;;;;5014130;28;20262;-86
2023/07/24 01:55:47;;;;;;;6.40;4.00;;;;;;;;;;5013595;28;20242;-85
2023/07/24 01:58:14;;;;;;;5.32;4.28;;;;;;;;;;5013467;28;20230;-83
2023/07/24 02:00:42;;;;;;;6.30;3.88;;;;;;;;;;5013729;28;20200;-84
2023/07/24 02:03:09;;;;;;;6.03;3.53;;;;;;;;;;5013712;28;20533;-84
2023/07/24 02:05:36;;;;;;;5.47;3.33;;;;;;;;;;5014446;28;20224;-84
2023/07/24 02:08:02;;;;;;;6.10;4.68;;;;;;;;;;5013523;28;20240;-84
2023/07/24 02:10:29;;;;;;;4.53;4.13;;;;;;;;;;5013502;28;20250;-84
2023/07/24 02:12:56;;;;;;;7.20;3.95;;;;;;;;;;5012727;28;20220;-84
2023/07/24 02:15:23;;;;;;;10.90;4.35;;;;;;;;;;5012720;28;20580;-85
2023/07/24 02:17:51;;;;;;;7.97;4.32;;;;;;;;;;5012273;28;20218;-85
2023/07/24 02:20:18;;;;;;;7.57;4.82;;;;;;;;;;5012888;28;20250;-85
2023/07/24 02:22:45;;;;;;;9.77;4.80;;;;;;;;;;5013116;28;20211;-85
2023/07/24 02:25:12;;;;;;;7.22;4.57;;;;;;;;;;5012984;28;20210;-85
2023/07/24 02:27:39;;;;;;;8.20;4.88;;;;;;;;;;5014132;28;20719;-85
2023/07/24 02:30:06;;;;;;;11.32;4.47;;;;;;;;;;5014955;28;20215;-85
2023/07/24 02:32:33;;;;;;;13.43;5.65;;;;;;;;;;5018474;28;20291;-85
2023/07/24 02:35:01;;;;;;;8.75;4.60;;;;;;;;;;5017392;28;20734;-86
2023/07/24 02:37:28;;;;;;;8.07;4.15;;;;;;;;;;5021691;28;20734;-84
2023/07/24 02:39:54;;;;;;;6.90;3.53;;;;;;;;;;5025997;28;20199;-85
2023/07/24 02:42:21;;;;;;;7.45;4.75;;;;;;;;;;5027934;28;20218;-85
2023/07/24 02:44:47;;;;;;;5.30;4.18;;;;;;;;;;5016949;28;20340;-84
2023/07/24 02:47:15;;;;;;;6.07;4.18;;;;;;;;;;5013256;28;20299;-84
2023/07/24 02:49:42;;;;;;;8.48;5.60;;;;;;;;;;5012004;28;20649;-84
2023/07/24 02:52:11;;;;;;;15.18;5.25;;;;;;;;;;5011916;28;20202;-85
2023/07/24 02:54:37;;;;;;;6.80;4.18;;;;;;;;;;5011390;28;20279;-84
2023/07/24 02:57:04;;;;;;;5.22;4.45;;;;;;;;;;5012048;28;20597;-85
2023/07/24 02:59:31;;;;;;;8.05;4.93;;;;;;;;;;5011977;28;20267;-84
2023/07/24 03:01:59;;;;;;;5.10;4.53;;;;;;;;;;5012261;28;20214;-85
2023/07/24 03:04:26;;;;;;;7.35;4.97;;;;;;;;;;5012070;28;20232;-85
2023/07/24 03:06:53;;;;;;;7.20;4.15;;;;;;;;;;5011624;28;20290;-85
2023/07/24 03:09:22;;;;;;;8.70;4.75;;;;;;;;;;5011537;28;20198;-85
2023/07/24 03:11:48;;;;;;;6.20;4.38;;;;;;;;;;5011358;28;20228;-84
2023/07/24 03:14:15;;;;;;;7.10;5.00;;;;;;;;;;5011823;28;20564;-85
2023/07/24 03:16:43;;;;;;;8.00;4.70;;;;;;;;;;5011452;28;20318;-85
2023/07/24 03:19:09;;;;;;;11.65;5.15;;;;;;;;;;5011578;28;20878;-85
2023/07/24 03:21:36;;;;;;;9.13;5.13;;;;;;;;;;5011481;28;20212;-85
2023/07/24 03:24:03;;;;;;;14.25;5.18;;;;;;;;;;5011517;28;20208;-83
2023/07/24 03:26:31;;;;;;;7.97;4.97;;;;;;;;;;5011368;28;20207;-84
2023/07/24 03:28:57;;;;;;;9.75;4.55;;;;;;;;;;5010512;28;20239;-84
2023/07/24 03:31:24;;;;;;;6.63;5.13;;;;;;;;;;5011485;28;20294;-84
2023/07/24 03:33:51;;;;;;;7.93;4.40;;;;;;;;;;5011428;28;20199;-85
2023/07/24 03:36:18;;;;;;;6.50;4.07;;;;;;;;;;5011435;28;20219;-84
2023/07/24 03:38:44;;;;;;;6.32;4.88;;;;;;;;;;5011313;28;20200;-83
2023/07/24 03:41:11;;;;;;;11.13;6.35;;;;;;;;;;5010978;28;20196;-85
2023/07/24 03:43:39;;;;;;;10.38;5.30;;;;;;;;;;5010745;28;20224;-84
2023/07/24 03:46:06;;;;;;;11.70;5.50;;;;;;;;;;5010682;28;20626;-85
2023/07/24 03:48:34;;;;;;;10.65;5.10;;;;;;;;;;5010607;28;20564;-85
2023/07/24 03:51:01;;;;;;;7.03;4.93;;;;;;;;;;5010799;28;20193;-85
2023/07/24 03:53:28;;;;;;;7.55;5.10;;;;;;;;;;5010704;28;20611;-84
2023/07/24 03:55:55;;;;;;;8.85;4.80;;;;;;;;;;5010904;28;20295;-85
2023/07/24 03:58:21;;;;;;;7.82;5.40;;;;;;;;;;5011323;28;20636;-85
2023/07/24 04:00:50;;;;;;;8.52;4.65;;;;;;;;;;5010924;28;20271;-85
2023/07/24 04:03:17;;;;;;;8.00;5.05;;;;;;;;;;5011287;28;20197;-85
2023/07/24 04:05:43;;;;;;;16.15;6.03;;;;;;;;;;5011104;28;20221;-85
2023/07/24 04:08:11;;;;;;;16.55;5.25;;;;;;;;;;5011157;28;20236;-86
2023/07/24 04:10:37;;;;;;;5.95;4.07;;;;;;;;;;5007104;28;20272;-85
2023/07/24 04:13:04;;;;;;;10.85;5.15;;;;;;;;;;5013581;28;20240;-86
2023/07/24 04:15:31;;;;;;;10.20;6.10;;;;;;;;;;5000243;28;20220;-86
2023/07/24 04:18:00;;;;;;;13.52;5.70;;;;;;;;;;5015302;28;20205;-86
2023/07/24 04:20:27;;;;;;;10.02;5.07;;;;;;;;;;5014028;28;20202;-84
2023/07/24 04:22:54;;;;;;;17.25;6.63;;;;;;;;;;5005215;28;20231;-85
2023/07/24 04:25:20;;;;;;;10.38;5.60;;;;;;;;;;5010190;28;20212;-86
2023/07/24 04:27:47;;;;;;;9.63;5.60;;;;;;;;;;4992169;28;20252;-85
2023/07/24 04:30:13;;;;;;;24.95;12.20;;;;;;;;;;4990529;28;20213;-85
2023/07/24 04:32:40;;;;;;;7.47;5.47;;;;;;;;;;4990611;28;20197;-86
2023/07/24 04:35:09;;;;;;;13.45;7.32;;;;;;;;;;4990028;28;20271;-86
2023/07/24 04:37:36;;;;;;;12.50;6.93;;;;;;;;;;4990289;28;20263;-86
2023/07/24 04:40:03;;;;;;;22.55;6.50;;;;;;;;;;4990207;28;20284;-86
2023/07/24 04:42:30;;;;;;;11.02;6.43;;;;;;;;;;4990327;28;20233;-85
2023/07/24 04:44:57;;;;;;;12.50;7.57;;;;;;;;;;4990530;28;20248;-85
2023/07/24 04:47:24;;;;;;;12.68;5.95;;;;;;;;;;4990314;28;20563;-86
2023/07/24 04:49:51;;;;;;;9.10;5.55;;;;;;;;;;4990359;28;20674;-86
2023/07/24 04:52:19;;;;;;;12.88;7.00;;;;;;;;;;4989660;28;20670;-86
2023/07/24 04:54:46;;;;;;;9.00;5.97;;;;;;;;;;4990006;28;20216;-85
2023/07/24 04:57:13;;;;;;;10.25;6.72;;;;;;;;;;5002622;28;20212;-85
2023/07/24 04:59:41;;;;;;;13.75;4.93;;;;;;;;;;5008897;28;20717;-84
2023/07/24 05:02:08;;;;;;;11.65;6.20;;;;;;;;;;5009634;28;20273;-85
2023/07/24 05:04:35;;;;;;;10.13;5.90;;;;;;;;;;5010240;28;20203;-84
2023/07/24 05:07:02;;;;;;;8.43;5.80;;;;;;;;;;4996648;28;20215;-85
2023/07/24 05:09:30;;;;;;;6.65;5.35;;;;;;;;;;4999380;28;20229;-85
2023/07/24 05:11:58;;;;;;;6.43;5.25;;;;;;;;;;5001982;28;20792;-85
2023/07/24 05:14:24;;;;;;;6.82;5.15;;;;;;;;;;4990437;28;20270;-85
2023/07/24 05:16:51;;;;;;;10.07;6.18;;;;;;;;;;5009362;28;20736;-85
2023/07/24 05:19:18;;;;;;;7.65;5.32;;;;;;;;;;5009150;28;20197;-85
2023/07/24 05:21:45;;;;;;;7.70;6.03;;;;;;;;;;5008009;28;20312;-85
2023/07/24 05:24:11;;;;;;;5.45;4.93;;;;;;;;;;5008977;28;20202;-85
2023/07/24 05:26:40;;;;;;;9.45;6.00;;;;;;;;;;4996964;28;20204;-85
2023/07/24 05:29:07;;;;;;;5.90;5.20;;;;;;;;;;4997619;28;20739;-84
2023/07/24 05:31:35;;;;;;;6.10;5.43;;;;;;;;;;5006053;28;20308;-84
2023/07/24 05:34:05;;;;;;;6.28;5.65;;;;;;;;;;5001000;28;20201;-85
2023/07/24 05:36:33;;;;;;;6.57;5.97;;;;;;;;;;5002945;28;20276;-85
2023/07/24 05:39:00;;;;;;;9.75;5.88;;;;;;;;;;5010041;28;20279;-85
2023/07/24 05:41:26;;;;;;;6.35;5.75;;;;;;;;;;5009650;28;20259;-85
2023/07/24 05:43:55;;;;;;;7.05;5.75;;;;;;;;;;5008091;28;20306;-85
2023/07/24 05:46:22;;;;;;;7.78;5.72;;;;;;;;;;5008598;28;20215;-84
2023/07/24 05:48:49;;;;;;;6.50;5.57;;;;;;;;;;4996427;28;20303;-85
2023/07/24 05:51:16;;;;;;;7.13;5.60;;;;;;;;;;4995984;28;20713;-85
2023/07/24 05:53:42;;;;;;;7.57;5.45;;;;;;;;;;5002819;28;20280;-84
2023/07/24 05:56:09;;;;;;;8.52;5.97;;;;;;;;;;5004584;28;20225;-86
2023/07/24 05:58:36;;;;;;;9.45;5.75;;;;;;;;;;5005987;28;20224;-86
2023/07/24 06:01:04;;;;;;;7.95;5.63;;;;;;;;;;5022046;28;20196;-84
2023/07/24 06:03:33;;;;;;;10.07;6.28;;;;;;;;;;5022892;28;20322;-85
2023/07/24 06:05:59;;;;;;;8.07;5.57;;;;;;;;;;5014008;28;20641;-86
2023/07/24 06:08:26;;;;;;;8.65;6.00;;;;;;;;;;5013583;28;20243;-84
2023/07/24 06:10:53;;;;;;;8.95;5.68;;;;;;;;;;5013341;28;20200;-85
2023/07/24 06:13:21;;;;;;;8.68;5.70;;;;;;;;;;5012252;28;20280;-85
2023/07/24 06:15:49;;;;;;;7.47;5.82;;;;;;;;;;5012750;28;20255;-85
2023/07/24 06:18:17;;;;;;;6.95;5.90;;;;;;;;;;5012491;28;20610;-84
2023/07/24 06:20:44;;;;;;;8.57;6.13;;;;;;;;;;5012465;28;20274;-85
2023/07/24 06:23:10;;;;;;;8.10;6.13;;;;;;;;;;5013046;28;20346;-85
2023/07/24 06:25:37;;;;;;;11.23;5.82;;;;;;;;;;5013222;28;20201;-85
2023/07/24 06:28:04;;;;;;;7.95;6.45;;;;;;;;;;5005716;28;20209;-85
2023/07/24 06:30:31;;;;;;;7.15;5.78;;;;;;;;;;4993202;28;20208;-85
2023/07/24 06:32:58;;;;;;;10.07;5.60;;;;;;;;;;4993499;28;20201;-85
2023/07/24 06:35:28;;;;;;;7.63;5.85;;;;;;;;;;4993150;28;20204;-86
2023/07/24 06:37:55;;;;;;;12.48;5.63;;;;;;;;;;4993844;28;20201;-85
2023/07/24 06:40:22;;;;;;;6.60;5.40;;;;;;;;;;4994071;28;20201;-85
2023/07/24 06:42:49;;;;;;;9.95;5.65;;;;;;;;;;4993320;28;20741;-86
2023/07/24 06:45:16;;;;;;;8.20;5.97;;;;;;;;;;4993979;28;20209;-84
2023/07/24 06:47:42;;;;;;;14.85;5.88;;;;;;;;;;4994598;28;20251;-86
2023/07/24 06:50:09;;;;;;;6.22;5.45;;;;;;;;;;4994508;28;20267;-85
2023/07/24 06:52:37;;;;;;;6.97;5.78;;;;;;;;;;4997596;28;20569;-86
2023/07/24 06:55:04;;;;;;;9.23;6.22;;;;;;;;;;4995963;28;20255;-85
2023/07/24 06:57:31;;;;;;;6.53;5.55;;;;;;;;;;5007345;28;20218;-84
2023/07/24 06:59:58;;;;;;;8.73;5.63;;;;;;;;;;5015154;28;20215;-86
2023/07/24 07:02:25;;;;;;;6.65;5.45;;;;;;;;;;5012014;28;20208;-85
2023/07/24 07:04:51;;;;;;;8.13;6.28;;;;;;;;;;5010276;28;20255;-84
2023/07/24 07:07:18;;;;;;;8.45;6.03;;;;;;;;;;5012024;28;20685;-85
2023/07/24 07:09:48;;;;;;;6.28;5.72;;;;;;;;;;5011244;28;20693;-85
2023/07/24 07:12:15;;;;;;;7.82;5.80;;;;;;;;;;5010166;28;20226;-87
2023/07/24 07:14:41;;;;;;;5.70;4.90;;;;;;;;;;5011631;28;20196;-83
2023/07/24 07:17:08;;;;;;;6.97;5.45;;;;;;;;;;5010897;28;20196;-86
2023/07/24 07:19:36;;;;;;;7.05;6.00;;;;;;;;;;5011112;28;20283;-86
2023/07/24 07:22:02;;;;;;;5.97;5.28;;;;;;;;;;5011909;28;20204;-86
2023/07/24 07:24:29;;;;;;;6.15;5.55;;;;;;;;;;5011781;28;20208;-85
2023/07/24 07:26:57;;;;;;;8.02;5.60;;;;;;;;;;5011090;28;20464;-86
2023/07/24 07:29:26;;;;;;;7.93;5.68;;;;;;;;;;5010863;28;20228;-85
2023/07/24 07:31:53;;;;;;;7.43;5.00;;;;;;;;;;5011255;28;20204;-86
2023/07/24 07:34:20;;;;;;;6.53;5.82;;;;;;;;;;5010698;28;20201;-85
2023/07/24 07:36:46;;;;;;;9.13;5.55;;;;;;;;;;5011119;28;20291;-85
2023/07/24 07:39:13;;;;;;;7.03;6.30;;;;;;;;;;5011227;28;20263;-85
2023/07/24 07:41:41;;;;;;;6.30;5.30;;;;;;;;;;5011313;28;20204;-86
2023/07/24 07:44:10;;;;;;;8.85;5.57;;;;;;;;;;5011064;28;20266;-86
2023/07/24 07:46:43;;;;;;;5.82;5.32;;;;;;;;;;5011078;28;20197;-87
2023/07/24 07:49:10;;;;;;;8.82;5.85;;;;;;;;;;5003575;28;20224;-86
2023/07/24 07:51:37;;;;;;;8.10;5.35;;;;;;;;;;5009460;28;20725;-85
2023/07/24 07:54:04;;;;;;;8.13;5.65;;;;;;;;;;4990041;28;20233;-86
2023/07/24 07:56:31;;;;;;;7.18;5.30;;;;;;;;;;5009411;28;20259;-84
2023/07/24 07:58:59;;;;;;;7.00;5.65;;;;;;;;;;5004772;28;20232;-86
2023/07/24 08:01:28;;;;;;;10.43;5.45;;;;;;;;;;5009419;28;20236;-85
2023/07/24 08:04:05;;;;;;;5.85;4.97;;;;;;;;;;5008192;28;20650;-85
2023/07/24 08:06:33;;;;;;;8.48;5.40;;;;;;;;;;5008849;28;20315;-85
2023/07/24 08:08:59;;;;;;;7.35;5.53;;;;;;;;;;5009090;28;20239;-84
2023/07/24 08:11:27;;;;;;;8.20;5.63;;;;;;;;;;5009102;28;20248;-85
2023/07/24 08:13:54;;;;;;;6.45;5.60;;;;;;;;;;5009847;28;20748;-86
2023/07/24 08:16:21;;;;;;;7.85;5.60;;;;;;;;;;5009826;28;20230;-85
2023/07/24 08:18:50;;;;;;;8.60;6.20;;;;;;;;;;5009480;28;20231;-85
2023/07/24 08:21:17;;;;;;;8.77;6.03;;;;;;;;;;5009484;28;20259;-85
2023/07/24 08:23:44;;;;;;;14.32;7.20;;;;;;;;;;5009766;28;20232;-85
2023/07/24 08:26:12;;;;;;;8.43;5.60;;;;;;;;;;5010846;28;20303;-87
2023/07/24 08:28:41;;;;;;;7.13;5.70;;;;;;;;;;5030008;28;20288;-84
2023/07/24 08:31:09;;;;;;;8.35;5.63;;;;;;;;;;5030024;28;20224;-85
2023/07/24 08:33:35;;;;;;;9.02;5.97;;;;;;;;;;5011441;28;20311;-85
2023/07/24 08:36:04;;;;;;;8.15;6.45;;;;;;;;;;5009233;28;20227;-85
2023/07/24 08:38:31;;;;;;;9.13;5.28;;;;;;;;;;4989447;28;20583;-86
2023/07/24 08:41:02;;;;;;;6.53;5.53;;;;;;;;;;4988848;28;20725;-85
2023/07/24 08:43:30;;;;;;;7.75;5.97;;;;;;;;;;4989253;28;20264;-85
2023/07/24 08:45:57;;;;;;;9.13;6.05;;;;;;;;;;4989371;28;20224;-85
2023/07/24 08:48:24;;;;;;;10.95;5.93;;;;;;;;;;4988953;28;20287;-85
2023/07/24 08:50:51;;;;;;;10.95;6.47;;;;;;;;;;4989660;28;20232;-88
2023/07/24 08:53:20;;;;;;;9.02;5.68;;;;;;;;;;4989504;28;20327;-87
2023/07/24 08:55:49;;;;;;;10.50;5.45;;;;;;;;;;4988909;28;20347;-88
2023/07/24 08:58:18;;;;;;;7.15;5.97;;;;;;;;;;4989320;28;20699;-87
2023/07/24 09:00:44;;;;;;;11.85;5.60;;;;;;;;;;4989558;28;20229;-86
2023/07/24 09:03:12;;;;;;;9.50;6.03;;;;;;;;;;4989647;28;20306;-86
2023/07/24 09:05:39;;;;;;;9.52;6.13;;;;;;;;;;4988837;28;20720;-88
2023/07/24 09:08:05;;;;;;;6.45;5.70;;;;;;;;;;5005349;28;20224;-87
2023/07/24 09:10:34;;;;;;;9.63;5.82;;;;;;;;;;5009215;28;20242;-87
2023/07/24 09:13:03;;;;;;;7.55;5.35;;;;;;;;;;5010507;28;20215;-88
2023/07/24 09:15:31;;;;;;;11.18;5.70;;;;;;;;;;5009207;28;20255;-86
2023/07/24 09:18:00;;;;;;;7.07;6.10;;;;;;;;;;5014691;28;20247;-86
2023/07/24 09:20:28;;;;;;;10.02;5.45;;;;;;;;;;5018132;28;20290;-87
2023/07/24 09:22:56;;;;;;;11.02;7.15;;;;;;;;;;5020815;28;20268;-86
2023/07/24 09:25:32;;;;;;;7.20;5.35;;;;;;;;;;4994703;28;20285;-87
2023/07/24 09:28:00;;;;;;;8.35;5.45;;;;;;;;;;4994955;28;20225;-86
2023/07/24 09:30:27;;;;;;;7.47;5.43;;;;;;;;;;4996338;28;20283;-86
2023/07/24 09:32:54;;;;;;;11.75;5.55;;;;;;;;;;4996762;28;20234;-88
2023/07/24 09:35:25;;;;;;;13.38;6.05;;;;;;;;;;4996378;28;20724;-87
2023/07/24 09:37:52;;;;;;;9.77;5.30;;;;;;;;;;5008487;28;20240;-86
2023/07/24 09:40:19;;;;;;;9.35;5.80;;;;;;;;;;5013565;28;20709;-88
2023/07/24 09:42:46;;;;;;;7.50;5.72;;;;;;;;;;5014435;28;20275;-88
2023/07/24 09:45:16;;;;;;;7.82;4.75;;;;;;;;;;5013541;28;20225;-86
2023/07/24 09:47:43;;;;;;;6.93;5.18;;;;;;;;;;5012684;28;20224;-86
2023/07/24 09:50:10;;;;;;;6.28;4.97;;;;;;;;;;5012751;28;20236;-87
2023/07/24 09:52:38;;;;;;;6.80;5.40;;;;;;;;;;5012197;28;20251;-86
2023/07/24 09:55:08;;;;;;;8.25;4.57;;;;;;;;;;5011840;28;20545;-86
2023/07/24 09:57:35;;;;;;;9.60;5.60;;;;;;;;;;5011926;28;20714;-85
2023/07/24 10:00:02;;;;;;;8.73;5.53;;;;;;;;;;5012267;28;20398;-85
2023/07/24 10:02:30;;;;;;;14.10;5.30;;;;;;;;;;5011256;28;20225;-85
2023/07/24 10:04:58;;;;;;;7.53;4.65;;;;;;;;;;5012516;28;20223;-85
2023/07/24 10:07:25;;;;;;;6.57;4.70;;;;;;;;;;5010974;28;20306;-86
2023/07/24 10:09:56;;;;;;;11.93;5.43;;;;;;;;;;5011652;28;20268;-85
2023/07/24 10:12:27;;;;;;;8.05;5.28;;;;;;;;;;5011108;28;20306;-85
2023/07/24 10:14:55;;;;;;;6.78;5.28;;;;;;;;;;5012044;28;20224;-85
2023/07/24 10:17:35;;;;;;;8.38;5.22;;;;;;;;;;5010642;28;20226;-86
2023/07/24 10:20:05;;;;;;;10.38;4.38;;;;;;;;;;5011581;28;20254;-85
2023/07/24 10:22:33;;;;;;;4.78;4.28;;;;;;;;;;5010913;28;20232;-85
2023/07/24 10:24:59;;;;;;;6.70;4.40;;;;;;;;;;5010755;28;20280;-87
2023/07/24 10:27:28;;;;;;;5.18;4.47;;;;;;;;;;5011262;28;20250;-86
2023/07/24 10:30:02;;;;;;;6.80;3.90;;;;;;;;;;5011353;28;20235;-85
2023/07/24 10:32:29;;;;;;;10.88;4.78;;;;;;;;;;5011005;28;20282;-87
2023/07/24 10:35:00;;;;;;;5.43;4.38;;;;;;;;;;5011404;28;20224;-86
2023/07/24 10:37:35;;;;;;;6.88;4.00;;;;;;;;;;5010266;28;20232;-85
2023/07/24 10:40:04;;;;;;;6.25;4.05;;;;;;;;;;5011745;28;20319;-87
2023/07/24 10:42:33;;;;;;;5.55;4.10;;;;;;;;;;5011697;28;20224;-86
2023/07/24 10:45:07;;;;;;;5.72;4.10;;;;;;;;;;5011340;28;20247;-87
2023/07/24 10:47:34;;;;;;;3.85;3.20;;;;;;;;;;5011434;28;20563;-86
2023/07/24 10:50:02;;;;;;;5.65;3.83;;;;;;;;;;5010830;28;20251;-84
2023/07/24 10:52:30;;;;;;;5.05;3.85;;;;;;;;;;5010495;28;20212;-85
2023/07/24 10:55:01;;;;;;;8.05;3.75;;;;;;;;;;5008702;28;20259;-86
2023/07/24 10:57:27;;;;;;;8.93;4.18;;;;;;;;;;5011000;28;20224;-87
2023/07/24 10:59:54;;;;;;;7.07;3.88;;;;;;;;;;5010912;28;20224;-85
2023/07/24 11:02:21;;;;;;;4.13;3.72;;;;;;;;;;5012293;28;20236;-85
2023/07/24 11:04:48;;;;;;;5.28;4.03;;;;;;;;;;5012292;28;20243;-86
2023/07/24 11:07:15;;;;;;;5.00;3.50;;;;;;;;;;5011809;28;20251;-86
2023/07/24 11:09:43;;;;;;;5.88;3.47;;;;;;;;;;5012916;28;20315;-86
2023/07/24 11:12:12;;;;;;;6.18;3.75;;;;;;;;;;5010541;28;20282;-87
2023/07/24 11:14:50;;;;;;;5.03;3.53;;;;;;;;;;5009656;28;20643;-86
2023/07/24 11:17:17;;;;;;;6.43;3.80;;;;;;;;;;5010615;28;20267;-85
2023/07/24 11:19:44;;;;;;;7.00;3.80;;;;;;;;;;5010300;28;20311;-86
2023/07/24 11:22:11;;;;;;;4.90;4.40;;;;;;;;;;5009090;28;20232;-86
2023/07/24 11:24:47;;;;;;;4.78;3.78;;;;;;;;;;5010153;28;20224;-86
2023/07/24 11:27:16;;;;;;;6.85;4.05;;;;;;;;;;5010026;28;20255;-87
2023/07/24 11:29:43;;;;;;;4.18;3.63;;;;;;;;;;5009937;28;20314;-86
2023/07/24 11:32:10;;;;;;;7.75;3.60;;;;;;;;;;5009986;28;20224;-87
2023/07/24 11:34:37;;;;;;;10.07;4.45;;;;;;;;;;5010088;28;20622;-85
2023/07/24 11:37:04;;;;;;;9.25;4.07;;;;;;;;;;4999387;28;20704;-85
2023/07/24 11:39:31;;;;;;;4.53;3.75;;;;;;;;;;4991246;28;20228;-88
2023/07/24 11:42:00;;;;;;;5.70;3.92;;;;;;;;;;4990691;28;20229;-86
2023/07/24 11:44:29;;;;;;;9.27;3.95;;;;;;;;;;4993858;28;20244;-85
2023/07/24 11:47:04;;;;;;;5.25;3.60;;;;;;;;;;4991788;28;20236;-85
2023/07/24 11:49:32;;;;;;;6.38;4.30;;;;;;;;;;4993460;28;20282;-84
2023/07/24 11:52:02;;;;;;;3.75;3.45;;;;;;;;;;4991902;28;20232;-86
2023/07/24 11:54:29;;;;;;;6.13;4.05;;;;;;;;;;4990426;28;20292;-86
2023/07/24 11:56:56;;;;;;;10.20;4.63;;;;;;;;;;4990643;28;20225;-85
2023/07/24 11:59:23;;;;;;;4.20;3.72;;;;;;;;;;4991678;28;20252;-85
2023/07/24 12:01:52;;;;;;;4.53;3.65;;;;;;;;;;4996095;28;20275;-86
2023/07/24 12:04:20;;;;;;;7.45;3.92;;;;;;;;;;4996914;28;20235;-87
2023/07/24 12:06:47;;;;;;;3.75;3.38;;;;;;;;;;4996923;28;20224;-86
2023/07/24 12:09:15;;;;;;;6.47;4.55;;;;;;;;;;5009445;28;20232;-87
2023/07/24 12:11:42;;;;;;;4.40;3.58;;;;;;;;;;5008877;28;20232;-86
2023/07/24 12:14:09;;;;;;;4.10;3.67;;;;;;;;;;5008909;28;20590;-88
2023/07/24 12:16:36;;;;;;;4.25;3.85;;;;;;;;;;5009826;28;20231;-86
2023/07/24 12:19:04;;;;;;;4.63;4.07;;;;;;;;;;5009619;28;20228;-86
2023/07/24 12:21:31;;;;;;;6.47;3.97;;;;;;;;;;5008080;28;20675;-86
2023/07/24 12:23:58;;;;;;;7.18;4.68;;;;;;;;;;5009429;28;20310;-86
2023/07/24 12:26:27;;;;;;;5.05;3.78;;;;;;;;;;5011034;28;20291;-85
2023/07/24 12:28:54;;;;;;;6.07;4.43;;;;;;;;;;5009627;28;20228;-87
2023/07/24 12:31:24;;;;;;;6.88;3.95;;;;;;;;;;5019401;28;20271;-86
2023/07/24 12:33:51;;;;;;;5.10;4.00;;;;;;;;;;5018525;28;20236;-86
2023/07/24 12:36:20;;;;;;;6.93;4.35;;;;;;;;;;5008851;28;20235;-86
2023/07/24 12:38:48;;;;;;;4.65;4.25;;;;;;;;;;5009318;28;20228;-86
2023/07/24 12:41:15;;;;;;;8.48;3.55;;;;;;;;;;5009496;28;20727;-86
2023/07/24 12:43:41;;;;;;;4.88;3.72;;;;;;;;;;5014562;28;20321;-85
2023/07/24 12:46:08;;;;;;;5.32;4.13;;;;;;;;;;5017374;28;20234;-85
2023/07/24 12:48:35;;;;;;;4.40;4.05;;;;;;;;;;5018402;28;20290;-86
2023/07/24 12:51:02;;;;;;;5.50;4.07;;;;;;;;;;5021474;28;20236;-86
2023/07/24 12:53:31;;;;;;;5.88;4.03;;;;;;;;;;5024188;28;20295;-86
2023/07/24 12:55:57;;;;;;;6.03;3.80;;;;;;;;;;5013448;28;20240;-86
2023/07/24 12:58:24;;;;;;;8.20;4.28;;;;;;;;;;5007217;28;20611;-86
2023/07/24 13:00:51;;;;;;;7.03;4.53;;;;;;;;;;5008698;28;20228;-87
2023/07/24 13:03:17;;;;;;;4.57;4.13;;;;;;;;;;5007114;28;20228;-86
2023/07/24 13:05:45;;;;;;;5.75;3.92;;;;;;;;;;5007883;28;20227;-86
2023/07/24 13:08:12;;;;;;;8.70;4.90;;;;;;;;;;4990140;28;20240;-85
2023/07/24 13:10:40;;;;;;;4.53;4.13;;;;;;;;;;4989219;28;20236;-85
2023/07/24 13:13:08;;;;;;;4.32;3.97;;;;;;;;;;4987868;28;20722;-86
2023/07/24 13:15:36;;;;;;;4.82;4.38;;;;;;;;;;4988416;28;20228;-87
2023/07/24 13:18:03;;;;;;;8.35;4.18;;;;;;;;;;4988964;28;20224;-86
2023/07/24 13:20:30;;;;;;;4.45;4.10;;;;;;;;;;4987654;28;20300;-86
2023/07/24 13:22:57;;;;;;;4.95;4.10;;;;;;;;;;4988800;28;20236;-87
2023/07/24 13:25:23;;;;;;;5.88;5.38;;;;;;;;;;4987836;28;20666;-87
2023/07/24 13:27:52;;;;;;;5.72;4.47;;;;;;;;;;4988244;28;20335;-85
2023/07/24 13:30:19;;;;;;;6.00;4.50;;;;;;;;;;4987803;28;20244;-85
2023/07/24 13:33:21;;;;;;;13.98;4.75;;;;;;;;;;4988693;28;20247;-85
2023/07/24 13:35:48;;;;;;;5.47;4.65;;;;;;;;;;4989982;28;20568;-86
2023/07/24 13:38:15;;;;;;;4.57;3.83;;;;;;;;;;5006036;28;20271;-86
2023/07/24 13:40:42;;;;;;;6.28;4.43;;;;;;;;;;5008155;28;20232;-86
2023/07/24 13:43:10;;;;;;;6.35;4.55;;;;;;;;;;5007760;28;20228;-87
2023/07/24 13:45:37;;;;;;;6.28;4.80;;;;;;;;;;5008462;28;20391;-87
2023/07/24 13:48:04;;;;;;;4.25;3.88;;;;;;;;;;5008085;28;20226;-86
2023/07/24 13:50:31;;;;;;;9.15;5.20;;;;;;;;;;5018369;28;20246;-86
2023/07/24 13:52:57;;;;;;;7.00;3.80;;;;;;;;;;5028393;28;20220;-86
2023/07/24 13:55:24;;;;;;;5.93;4.43;;;;;;;;;;5027672;28;20442;-86
2023/07/24 13:57:51;;;;;;;6.10;4.50;;;;;;;;;;5028135;28;20787;-85
2023/07/24 14:00:19;;;;;;;7.43;4.97;;;;;;;;;;5029002;28;20628;-86
2023/07/24 14:02:46;;;;;;;5.28;4.15;;;;;;;;;;5029253;28;20191;-85
2023/07/24 14:05:16;;;;;;;4.32;3.92;;;;;;;;;;5028991;28;20258;-87
2023/07/24 14:07:42;;;;;;;8.50;5.22;;;;;;;;;;5029550;28;20200;-86
2023/07/24 14:10:25;;;;;;;6.00;4.57;;;;;;;;;;5029502;28;20204;-86
2023/07/24 14:12:52;;;;;;;5.72;4.88;;;;;;;;;;5028970;28;20372;-85
2023/07/24 14:15:20;;;;;;;7.68;4.95;;;;;;;;;;5033122;28;20228;-86
2023/07/24 14:17:47;;;;;;;5.30;4.40;;;;;;;;;;5033442;28;20230;-86
2023/07/24 14:20:14;;;;;;;5.07;4.40;;;;;;;;;;5032088;28;20279;-86
2023/07/24 14:22:41;;;;;;;5.93;4.85;;;;;;;;;;5032458;28;20588;-85
2023/07/24 14:25:08;;;;;;;7.47;4.68;;;;;;;;;;5032113;28;20692;-86
2023/07/24 14:27:36;;;;;;;7.53;4.78;;;;;;;;;;5032057;28;20203;-85
2023/07/24 14:30:02;;;;;;;6.47;4.65;;;;;;;;;;5032077;28;20251;-85
2023/07/24 14:32:31;;;;;;;8.13;4.82;;;;;;;;;;5031963;28;20720;-86
2023/07/24 14:34:58;;;;;;;12.15;5.03;;;;;;;;;;5031364;28;20195;-86
2023/07/24 14:37:25;;;;;;;6.15;4.82;;;;;;;;;;5032423;28;20196;-86
2023/07/24 14:39:51;;;;;;;7.25;3.97;;;;;;;;;;5031984;28;20673;-86
2023/07/24 14:42:18;;;;;;;5.15;4.45;;;;;;;;;;5031729;28;20273;-86